Time;durP1;ratioP1;P1;durP2;ratioP2;P2;SDS_P1;SDS_P2;PMS_P1;PMS_P2;Temp;Humidity;BMP_temperature;BMP_pressure;BME280_temperature;BME280_humidity;BME280_pressure;Samples;Min_cycle;Max_cycle;Signal;HPM_P1;HPM_P2
2023/03/22 09:05:14;;;;;;;7.70;5.90;;;;;;;12.36;100.00;99816.94;104475;1308;545739;-69
2023/03/22 09:07:46;;;;;;;7.80;6.30;;;;;;;12.57;100.00;99814.04;106318;1288;25423;-68
2023/03/22 09:10:24;;;;;;;7.30;5.60;;;;;;;12.77;100.00;99816.86;106725;1285;24219;-68
2023/03/22 09:12:53;;;;;;;8.50;5.20;;;;;;;12.87;100.00;99811.11;106596;1283;25484;-68
2023/03/22 09:15:28;;;;;;;7.60;5.80;;;;;;;12.96;100.00;99806.77;106339;1281;25550;-69
2023/03/22 09:18:08;;;;;;;8.10;5.50;;;;;;;12.86;100.00;99805.42;106720;1280;265235;-70
2023/03/22 09:20:36;;;;;;;7.60;5.50;;;;;;;12.73;100.00;99803.61;107037;1272;27519;-69
2023/03/22 09:23:14;;;;;;;6.70;4.90;;;;;;;12.70;100.00;99804.13;106948;1276;22612;-69
2023/03/22 09:25:44;;;;;;;5.70;4.50;;;;;;;12.76;100.00;99802.05;106804;1281;25321;-69
2023/03/22 09:28:14;;;;;;;6.90;5.10;;;;;;;12.98;100.00;99800.23;106870;1280;25347;-69
2023/03/22 09:30:50;;;;;;;6.60;5.00;;;;;;;13.18;100.00;99793.17;106924;1273;23591;-68
2023/03/22 09:33:19;;;;;;;7.30;5.20;;;;;;;13.28;100.00;99789.20;107081;1273;25416;-67
2023/03/22 09:35:50;;;;;;;6.40;4.90;;;;;;;13.50;100.00;99783.55;106809;1274;22637;-68
2023/03/22 09:38:23;;;;;;;6.10;4.70;;;;;;;13.68;100.00;99779.26;107014;1280;22526;-68
2023/03/22 09:41:00;;;;;;;7.90;5.20;;;;;;;13.66;100.00;99778.90;106904;1280;22540;-67
2023/03/22 09:43:42;;;;;;;6.20;5.00;;;;;;;13.47;100.00;99772.05;107130;1280;23001;-68
2023/03/22 09:46:39;;;;;;;5.60;4.40;;;;;;;13.29;100.00;99773.88;106861;1279;25697;-68
2023/03/22 09:49:17;;;;;;;7.00;5.30;;;;;;;13.07;100.00;99768.66;107146;1280;23490;-68
2023/03/22 09:51:50;;;;;;;6.00;4.80;;;;;;;12.86;100.00;99764.45;107072;1277;23452;-69
2023/03/22 09:54:22;;;;;;;6.90;5.60;;;;;;;12.79;100.00;99765.11;106970;1279;25350;-68
2023/03/22 10:00:41;;;;;;;6.20;4.80;;;;;;;13.00;100.00;99770.34;105468;1299;557748;-72
2023/03/22 10:03:24;;;;;;;7.10;5.10;;;;;;;13.14;100.00;99772.38;106487;1288;23319;-72
2023/03/22 10:06:04;;;;;;;6.60;4.90;;;;;;;13.11;100.00;99772.23;106484;1282;22540;-72
2023/03/22 10:09:07;;;;;;;6.20;4.70;;;;;;;13.09;100.00;99767.39;106554;1288;25365;-72
2023/03/22 10:11:40;;;;;;;6.50;4.90;;;;;;;13.12;100.00;99767.02;106443;1285;22535;-71
2023/03/22 10:15:02;;;;;;;6.70;4.40;;;;;;;13.13;100.00;99761.56;106225;1280;173961;-71
2023/03/22 10:17:29;;;;;;;5.80;4.90;;;;;;;13.24;100.00;99758.22;106020;1288;23922;-72
2023/03/22 10:20:27;;;;;;;6.40;4.20;;;;;;;13.36;100.00;99758.00;106389;1286;22963;-72
2023/03/22 10:22:55;;;;;;;5.50;4.20;;;;;;;13.52;100.00;99754.77;107051;1261;22536;-73
2023/03/22 10:25:29;;;;;;;5.90;4.40;;;;;;;13.57;100.00;99754.11;107073;1276;22526;-72
2023/03/22 10:27:59;;;;;;;4.50;3.70;;;;;;;13.71;100.00;99753.61;107101;1276;22582;-70
2023/03/22 10:30:31;;;;;;;5.70;4.40;;;;;;;13.75;100.00;99753.52;107250;1269;24925;-71
2023/03/22 10:33:12;;;;;;;6.80;4.40;;;;;;;13.76;100.00;99748.91;107437;1272;22535;-70
2023/03/22 10:35:39;;;;;;;4.90;3.90;;;;;;;13.86;100.00;99745.99;107343;1275;25328;-70
2023/03/22 10:38:08;;;;;;;4.80;3.80;;;;;;;13.89;100.00;99744.69;107354;1275;26147;-70
2023/03/22 10:40:39;;;;;;;5.00;3.90;;;;;;;13.82;100.00;99738.20;107297;1276;25500;-69
2023/03/22 10:43:21;;;;;;;5.60;3.90;;;;;;;13.80;100.00;99734.09;107082;1276;22530;-70
2023/03/22 10:45:49;;;;;;;4.30;2.90;;;;;;;13.89;100.00;99729.86;107041;1277;22523;-70
2023/03/22 10:48:27;;;;;;;6.80;3.60;;;;;;;13.94;100.00;99722.46;107141;1277;25396;-71
2023/03/22 10:50:54;;;;;;;6.40;3.30;;;;;;;13.99;100.00;99716.41;107181;1276;25450;-70
2023/03/22 10:53:29;;;;;;;4.90;3.60;;;;;;;13.98;100.00;99717.81;107248;1271;22651;-70
2023/03/22 10:55:56;;;;;;;4.70;3.20;;;;;;;13.88;100.00;99716.56;107184;1276;23473;-70
2023/03/22 10:58:29;;;;;;;3.70;2.60;;;;;;;13.71;100.00;99717.51;107272;1276;22545;-70
2023/03/22 11:01:01;;;;;;;5.10;3.30;;;;;;;13.56;100.00;99718.39;107323;1277;23903;-71
2023/03/22 11:03:37;;;;;;;4.70;3.10;;;;;;;13.39;100.00;99717.83;107303;1276;25502;-70
2023/03/22 11:06:05;;;;;;;4.50;3.10;;;;;;;13.26;100.00;99712.38;107315;1260;25375;-70
2023/03/22 11:08:49;;;;;;;4.00;2.60;;;;;;;13.30;100.00;99718.58;107283;1270;23311;-71
2023/03/22 11:11:17;;;;;;;3.90;2.90;;;;;;;13.36;100.00;99714.41;107121;1273;23338;-70
2023/03/22 11:13:57;;;;;;;6.00;3.10;;;;;;;13.37;100.00;99712.33;107433;1268;25972;-71
2023/03/22 11:16:25;;;;;;;3.70;2.60;;;;;;;13.51;100.00;99713.10;107108;1276;22522;-70
2023/03/22 11:18:52;;;;;;;4.70;3.20;;;;;;;13.55;100.00;99706.66;107257;1276;25460;-70
2023/03/22 11:21:20;;;;;;;5.10;3.30;;;;;;;13.42;100.00;99702.31;110123;1276;23045;-71
2023/03/22 11:24:09;;;;;;;6.40;3.60;;;;;;;13.34;100.00;99699.67;110159;1269;23213;-71
2023/03/22 11:26:38;;;;;;;5.00;3.40;;;;;;;13.39;100.00;99697.05;110236;1276;23050;-71
2023/03/22 11:29:16;;;;;;;5.40;3.60;;;;;;;13.49;100.00;99698.64;110445;1276;22209;-71
2023/03/22 11:31:57;;;;;;;5.70;3.50;;;;;;;13.51;100.00;99690.84;110499;1276;22279;-72
2023/03/22 11:34:26;;;;;;;6.20;3.50;;;;;;;13.63;100.00;99688.02;110277;1271;24364;-71
2023/03/22 11:36:55;;;;;;;4.10;2.70;;;;;;;13.75;100.00;99685.22;107239;1277;22534;-70
2023/03/22 11:39:27;;;;;;;4.30;2.80;;;;;;;13.78;100.00;99681.96;107166;1273;22530;-70
2023/03/22 11:42:02;;;;;;;6.80;2.90;;;;;;;13.68;100.00;99683.45;107197;1276;22522;-70
2023/03/22 11:44:34;;;;;;;4.70;3.40;;;;;;;13.58;100.00;99687.73;107144;1276;27133;-70
2023/03/22 11:47:01;;;;;;;4.30;3.00;;;;;;;13.56;100.00;99688.16;107182;1275;22513;-69
2023/03/22 11:49:46;;;;;;;4.30;3.10;;;;;;;13.54;100.00;99684.52;107305;1272;24310;-70
2023/03/22 11:52:20;;;;;;;4.00;2.80;;;;;;;13.47;100.00;99686.89;107270;1276;22693;-70
2023/03/22 11:54:47;;;;;;;3.90;2.80;;;;;;;13.45;100.00;99681.34;107228;1276;25340;-70
2023/03/22 11:57:34;;;;;;;4.80;3.20;;;;;;;13.50;100.00;99681.02;107257;1276;22670;-70
2023/03/22 12:00:10;;;;;;;3.90;2.60;;;;;;;13.56;100.00;99683.52;107290;1276;25244;-70
2023/03/22 12:02:42;;;;;;;4.00;3.10;;;;;;;13.53;100.00;99673.19;107145;1277;25430;-70
2023/03/22 12:05:26;;;;;;;3.10;2.50;;;;;;;13.51;100.00;99675.58;107051;1276;22542;-70
2023/03/22 12:08:08;;;;;;;3.60;2.30;;;;;;;13.52;100.00;99671.80;107233;1276;23239;-69
2023/03/22 12:10:40;;;;;;;3.40;2.40;;;;;;;13.50;100.00;99667.27;107250;1270;25427;-69
2023/03/22 12:13:27;;;;;;;3.70;2.30;;;;;;;13.54;100.00;99657.54;107114;1277;25351;-69
2023/03/22 12:15:58;;;;;;;3.20;2.40;;;;;;;13.66;100.00;99648.53;107465;1276;22553;-70
2023/03/22 12:18:38;;;;;;;11.70;5.50;;;;;;;13.68;100.00;99648.94;107120;1276;25632;-70
2023/03/22 12:21:08;;;;;;;10.20;5.20;;;;;;;13.68;100.00;99644.99;107093;1277;25248;-70
2023/03/22 12:23:35;;;;;;;8.30;4.20;;;;;;;13.59;100.00;99643.21;107229;1270;25340;-70
2023/03/22 12:26:19;;;;;;;6.20;3.10;;;;;;;13.55;100.00;99644.30;107286;1276;22521;-70
2023/03/22 12:28:55;;;;;;;4.10;2.20;;;;;;;13.51;100.00;99645.16;107288;1270;26508;-70
2023/03/22 12:31:28;;;;;;;2.80;2.00;;;;;;;13.50;100.00;99643.82;107266;1276;25418;-70
2023/03/22 12:33:58;;;;;;;8.00;2.60;;;;;;;13.51;100.00;99635.77;107267;1276;22530;-70
2023/03/22 12:36:33;;;;;;;2.90;2.00;;;;;;;13.54;100.00;99633.59;107476;1270;22563;-70
2023/03/22 12:39:01;;;;;;;3.80;1.90;;;;;;;13.57;100.00;99631.73;107224;1272;25334;-70
2023/03/22 12:41:34;;;;;;;3.70;1.80;;;;;;;13.57;100.00;99629.67;107090;1277;24445;-70
2023/03/22 12:44:22;;;;;;;3.80;2.50;;;;;;;13.57;100.00;99623.11;110301;1275;22358;-71
2023/03/22 12:46:52;;;;;;;5.10;2.50;;;;;;;13.58;100.00;99617.73;110540;1276;22191;-71
2023/03/22 12:49:26;;;;;;;3.30;2.20;;;;;;;13.58;100.00;99618.23;110423;1276;22247;-70
2023/03/22 12:51:55;;;;;;;2.80;1.70;;;;;;;13.57;100.00;99620.20;110371;1276;22240;-70
2023/03/22 12:54:23;;;;;;;3.70;1.80;;;;;;;13.64;100.00;99622.45;110345;1273;22271;-71
2023/03/22 12:56:50;;;;;;;4.70;1.90;;;;;;;13.78;100.00;99617.55;109754;1276;23893;-70
2023/03/22 12:59:23;;;;;;;3.50;2.30;;;;;;;13.90;100.00;99607.36;107043;1276;25394;-70
2023/03/22 13:01:56;;;;;;;3.00;2.20;;;;;;;13.99;100.00;99597.26;107576;1275;22640;-70
2023/03/22 13:04:34;;;;;;;3.60;1.80;;;;;;;14.11;100.00;99601.67;107372;1276;22682;-68
2023/03/22 13:07:13;;;;;;;2.90;2.20;;;;;;;14.26;100.00;99600.84;107275;1276;26703;-69
2023/03/22 13:09:44;;;;;;;2.50;2.00;;;;;;;14.38;100.00;99594.74;107190;1276;25499;-69
2023/03/22 13:12:15;;;;;;;2.90;2.10;;;;;;;14.46;100.00;99596.75;107221;1275;23238;-70
2023/03/22 13:14:56;;;;;;;3.10;1.90;;;;;;;14.49;100.00;99590.35;107194;1276;25122;-69
2023/03/22 13:17:23;;;;;;;2.80;1.90;;;;;;;14.50;100.00;99586.71;107495;1276;25089;-70
2023/03/22 13:20:10;;;;;;;3.80;1.60;;;;;;;14.57;100.00;99584.27;107218;1276;25417;-71
2023/03/22 13:22:40;;;;;;;3.10;1.30;;;;;;;14.67;100.00;99582.61;107287;1276;22560;-71
2023/03/22 13:25:15;;;;;;;2.60;1.30;;;;;;;14.77;100.00;99579.80;107273;1277;22572;-71
2023/03/22 13:27:52;;;;;;;2.60;1.70;;;;;;;14.75;100.00;99570.30;107138;1276;25281;-71
2023/03/22 13:30:25;;;;;;;3.30;1.40;;;;;;;14.72;100.00;99574.52;107249;1276;25359;-71
2023/03/22 13:32:56;;;;;;;3.90;1.60;;;;;;;14.78;100.00;99573.63;107287;1274;23319;-70
2023/03/22 13:35:49;;;;;;;2.50;1.50;;;;;;;14.88;100.00;99578.52;107132;1276;23129;-71
2023/03/22 13:38:18;;;;;;;3.20;1.70;;;;;;;14.97;100.00;99574.05;107183;1270;25356;-71
2023/03/22 13:40:58;;;;;;;2.90;1.40;;;;;;;14.97;100.00;99572.83;107338;1270;25345;-72
2023/03/22 13:43:30;;;;;;;2.80;1.50;;;;;;;15.00;100.00;99568.61;107472;1273;22564;-70
2023/03/22 13:46:01;;;;;;;2.00;1.50;;;;;;;14.96;100.00;99560.40;107162;1270;23587;-70
2023/03/22 13:48:47;;;;;;;1.90;1.30;;;;;;;14.89;100.00;99557.79;106936;1276;25379;-71
2023/03/22 13:51:21;;;;;;;3.60;1.90;;;;;;;14.81;100.00;99555.54;107137;1276;22615;-71
2023/03/22 13:54:16;;;;;;;2.10;1.30;;;;;;;14.80;100.00;99555.30;107175;1272;22578;-71
2023/03/22 13:56:47;;;;;;;2.10;1.20;;;;;;;14.78;100.00;99558.13;107117;1276;22535;-69
2023/03/22 13:59:26;;;;;;;3.00;1.40;;;;;;;14.73;100.00;99556.53;107193;1276;25386;-70
2023/03/22 14:02:01;;;;;;;3.20;1.80;;;;;;;14.65;100.00;99557.02;107118;1276;23490;-72
2023/03/22 14:04:49;;;;;;;2.70;1.50;;;;;;;14.57;100.00;99560.30;110422;1272;23025;-70
2023/03/22 14:07:48;;;;;;;4.60;1.40;;;;;;;14.51;100.00;99558.96;110401;1276;22437;-71
2023/03/22 14:10:19;;;;;;;2.40;1.40;;;;;;;14.46;100.00;99558.17;110412;1273;22918;-70
2023/03/22 14:13:01;;;;;;;1.80;1.10;;;;;;;14.40;100.00;99554.89;110306;1276;23081;-71
2023/03/22 14:15:35;;;;;;;2.60;1.60;;;;;;;14.35;100.00;99556.23;110487;1270;22219;-70
2023/03/22 14:18:07;;;;;;;2.60;1.50;;;;;;;14.29;100.00;99552.47;109807;1276;25246;-70
2023/03/22 14:20:35;;;;;;;3.10;1.80;;;;;;;14.25;100.00;99552.60;107259;1276;24253;-69
2023/03/22 14:23:05;;;;;;;5.10;2.60;;;;;;;14.21;100.00;99552.63;107497;1276;24497;-69
2023/03/22 14:25:32;;;;;;;2.90;1.60;;;;;;;14.16;100.00;99554.34;107415;1276;25340;-70
2023/03/22 14:27:59;;;;;;;2.50;1.60;;;;;;;14.14;100.00;99554.43;107262;1273;23408;-70
2023/03/22 14:30:25;;;;;;;3.10;1.80;;;;;;;14.08;100.00;99551.41;107257;1270;22543;-70
2023/03/22 14:32:57;;;;;;;4.00;2.40;;;;;;;14.02;100.00;99553.38;107242;1276;23368;-69
2023/03/22 14:35:37;;;;;;;2.50;1.70;;;;;;;13.94;100.00;99550.55;107205;1271;22529;-70
2023/03/22 14:38:09;;;;;;;3.00;1.80;;;;;;;13.86;100.00;99552.31;107207;1271;22546;-71
2023/03/22 14:40:36;;;;;;;2.50;1.50;;;;;;;13.80;100.00;99553.61;107167;1276;25331;-70
2023/03/22 14:43:19;;;;;;;2.20;1.60;;;;;;;13.78;100.00;99555.90;107216;1270;22944;-70
2023/03/22 14:45:48;;;;;;;4.50;1.80;;;;;;;13.75;100.00;99557.90;107178;1273;22540;-70
2023/03/22 14:48:19;;;;;;;2.90;1.60;;;;;;;13.69;100.00;99554.23;107040;1272;22550;-71
2023/03/22 14:50:53;;;;;;;3.70;2.40;;;;;;;13.64;100.00;99555.82;107220;1273;25344;-70
2023/03/22 14:53:40;;;;;;;3.40;2.10;;;;;;;13.60;100.00;99559.77;107259;1276;25246;-71
2023/03/22 14:56:30;;;;;;;4.10;1.90;;;;;;;13.55;100.00;99557.60;107158;1276;22538;-71
2023/03/22 14:58:57;;;;;;;3.40;2.20;;;;;;;13.51;100.00;99555.48;107269;1276;22588;-71
2023/03/22 15:01:42;;;;;;;4.60;1.50;;;;;;;13.46;100.00;99555.97;107220;1270;23756;-71
2023/03/22 15:04:10;;;;;;;3.10;2.10;;;;;;;13.40;100.00;99552.01;107255;1274;22565;-71
2023/03/22 15:06:47;;;;;;;2.70;1.90;;;;;;;13.34;100.00;99551.16;107122;1276;22590;-71
2023/03/22 15:09:16;;;;;;;3.10;1.90;;;;;;;13.29;100.00;99556.59;107197;1274;23924;-71
2023/03/22 15:11:43;;;;;;;3.00;1.70;;;;;;;13.22;100.00;99555.04;107453;1276;25322;-71
2023/03/22 15:14:10;;;;;;;3.10;2.00;;;;;;;13.16;100.00;99555.50;107163;1276;22773;-71
2023/03/22 15:16:38;;;;;;;2.50;1.60;;;;;;;13.10;100.00;99562.08;107203;1276;24611;-71
2023/03/22 15:19:07;;;;;;;3.60;2.00;;;;;;;13.03;100.00;99556.52;107531;1270;25341;-71
2023/03/22 15:21:36;;;;;;;4.00;2.40;;;;;;;12.97;100.00;99563.70;107245;1276;22538;-71
2023/03/22 15:24:33;;;;;;;4.10;2.50;;;;;;;12.91;100.00;99563.16;110216;1276;23143;-71
2023/03/22 15:27:11;;;;;;;4.10;2.40;;;;;;;12.88;100.00;99570.07;110377;1271;22368;-71
2023/03/22 15:29:41;;;;;;;6.60;2.70;;;;;;;12.83;100.00;99570.90;110229;1270;23046;-72
2023/03/22 15:32:20;;;;;;;4.60;2.40;;;;;;;12.80;100.00;99570.66;110197;1270;22875;-72
2023/03/22 15:34:48;;;;;;;4.90;2.60;;;;;;;12.76;100.00;99575.02;110372;1276;22973;-72
2023/03/22 15:37:38;;;;;;;7.20;4.20;;;;;;;12.72;100.00;99577.46;109763;1276;25412;-71
2023/03/22 15:40:36;;;;;;;9.30;4.70;;;;;;;12.68;100.00;99577.17;107204;1273;22532;-71
2023/03/22 15:43:23;;;;;;;7.20;4.20;;;;;;;12.62;100.00;99578.66;107248;1276;25379;-71
2023/03/22 15:46:18;;;;;;;8.50;4.20;;;;;;;12.54;100.00;99584.05;107056;1276;22566;-71
2023/03/22 15:48:52;;;;;;;9.40;4.80;;;;;;;12.44;100.00;99584.23;106932;1270;25407;-71
2023/03/22 15:51:20;;;;;;;15.20;9.90;;;;;;;12.35;100.00;99587.00;107191;1270;24389;-71
2023/03/22 15:53:47;;;;;;;20.10;11.00;;;;;;;12.26;100.00;99589.27;107298;1276;25351;-70
2023/03/22 15:56:27;;;;;;;19.00;12.30;;;;;;;12.17;100.00;99592.24;107216;1273;23358;-71
2023/03/22 15:58:59;;;;;;;17.00;11.10;;;;;;;12.06;100.00;99589.22;107344;1275;22536;-70
2023/03/22 16:01:25;;;;;;;17.80;11.00;;;;;;;11.96;100.00;99590.39;107219;1275;22528;-71
2023/03/22 16:03:54;;;;;;;;;;;;;;;11.86;100.00;99589.86;107299;1275;22632;-69
2023/03/22 16:06:20;;;;;;;12.70;7.90;;;;;;;11.72;100.00;99585.80;107429;1271;23341;-69
2023/03/22 16:08:47;;;;;;;18.70;9.70;;;;;;;11.58;100.00;99592.96;107157;1254;24240;-71
2023/03/22 16:11:14;;;;;;;15.10;9.70;;;;;;;11.48;100.00;99590.94;107228;1269;24336;-69
2023/03/22 16:13:43;;;;;;;14.90;9.70;;;;;;;11.37;100.00;99589.95;107187;1275;22578;-69
2023/03/22 16:16:13;;;;;;;;;;;;;;;11.27;100.00;99590.88;107357;1269;26723;-70
2023/03/22 16:18:39;;;;;;;14.80;9.70;;;;;;;11.14;100.00;99596.33;107480;1269;22616;-69
2023/03/22 16:21:12;;;;;;;15.20;9.60;;;;;;;10.98;100.00;99596.88;107378;1270;22670;-69
2023/03/22 16:23:39;;;;;;;16.90;9.70;;;;;;;10.87;100.00;99598.01;107363;1270;23280;-69
2023/03/22 16:26:13;;;;;;;14.10;9.40;;;;;;;10.77;100.00;99600.49;107483;1270;25337;-70
2023/03/22 16:28:39;;;;;;;13.10;8.60;;;;;;;10.66;100.00;99597.56;107540;1269;25352;-70
2023/03/22 16:31:11;;;;;;;12.10;7.90;;;;;;;10.57;100.00;99603.63;107298;1269;23329;-67
2023/03/22 16:33:40;;;;;;;12.60;7.70;;;;;;;10.45;100.00;99597.88;107188;1275;25382;-69
2023/03/22 16:36:14;;;;;;;12.10;7.50;;;;;;;10.35;100.00;99600.66;107959;1270;22583;-67
2023/03/22 16:38:41;;;;;;;9.80;6.80;;;;;;;10.25;100.00;99605.98;107334;1270;24375;-66
2023/03/22 16:41:27;;;;;;;11.20;6.90;;;;;;;10.16;100.00;99605.50;107303;1269;25220;-64
2023/03/22 16:43:55;;;;;;;13.30;6.80;;;;;;;10.06;100.00;99610.20;107358;1269;25966;-64
2023/03/22 16:46:21;;;;;;;12.20;7.10;;;;;;;10.01;100.00;99611.02;110392;1274;23214;-66
2023/03/22 16:48:47;;;;;;;;;;;;;;;9.98;100.00;99612.54;110347;1270;22427;-67
2023/03/22 16:51:19;;;;;;;9.80;6.20;;;;;;;9.86;100.00;99616.23;110482;1274;22271;-67
2023/03/22 16:53:47;;;;;;;11.80;6.70;;;;;;;9.73;100.00;99615.55;110443;1270;22232;-67
2023/03/22 16:56:20;;;;;;;11.00;6.40;;;;;;;9.67;100.00;99617.33;110363;1273;22314;-67
2023/03/22 16:58:47;;;;;;;10.00;6.50;;;;;;;9.61;100.00;99621.45;109247;1273;22983;-66
2023/03/22 17:01:15;;;;;;;13.60;8.50;;;;;;;9.55;100.00;99625.61;107573;1270;25557;-66
2023/03/22 17:03:44;;;;;;;11.50;7.80;;;;;;;9.45;100.00;99628.91;107451;1270;25351;-65
2023/03/22 17:06:16;;;;;;;13.80;7.60;;;;;;;9.34;100.00;99635.23;107165;1275;25341;-65
2023/03/22 17:08:42;;;;;;;13.70;8.00;;;;;;;9.23;100.00;99637.19;107397;1270;23290;-65
2023/03/22 17:11:22;;;;;;;15.40;8.80;;;;;;;9.18;100.00;99639.55;107380;1270;22930;-65
2023/03/22 17:13:52;;;;;;;16.50;9.30;;;;;;;9.13;100.00;99646.31;107445;1271;25325;-65
2023/03/22 17:16:19;;;;;;;14.00;9.00;;;;;;;9.04;100.00;99653.61;107192;1269;25337;-65
2023/03/22 17:18:46;;;;;;;16.50;8.70;;;;;;;8.94;100.00;99653.98;107102;1273;26814;-65
2023/03/22 17:21:14;;;;;;;13.70;8.10;;;;;;;8.86;100.00;99652.10;107092;1275;25447;-65
2023/03/22 17:23:46;;;;;;;10.80;6.70;;;;;;;8.79;100.00;99653.19;107274;1271;25271;-65
2023/03/22 17:26:14;;;;;;;8.90;5.70;;;;;;;8.72;100.00;99657.64;107262;1275;23229;-65
2023/03/22 17:28:42;;;;;;;9.50;6.20;;;;;;;8.67;100.00;99658.05;107154;1275;22526;-65
2023/03/22 17:31:13;;;;;;;8.90;6.10;;;;;;;8.67;100.00;99661.47;107191;1269;25452;-65
2023/03/22 17:33:40;;;;;;;17.70;13.10;;;;;;;8.68;100.00;99666.91;107444;1275;26176;-66
2023/03/22 17:36:08;;;;;;;21.10;14.40;;;;;;;8.64;100.00;99668.34;107436;1267;22599;-65
2023/03/22 17:38:36;;;;;;;29.30;19.10;;;;;;;8.60;100.00;99669.61;107234;1270;22559;-65
2023/03/22 17:41:03;;;;;;;32.10;20.00;;;;;;;8.57;100.00;99669.16;107465;1275;22687;-65
2023/03/22 17:43:30;;;;;;;47.30;30.80;;;;;;;8.55;100.00;99669.47;107180;1269;26570;-65
2023/03/22 17:45:58;;;;;;;24.40;15.20;;;;;;;8.54;100.00;99668.59;107569;1269;25452;-66
2023/03/22 17:48:28;;;;;;;24.60;16.60;;;;;;;8.50;100.00;99668.14;107174;1270;25431;-65
2023/03/22 17:50:55;;;;;;;22.50;13.90;;;;;;;8.44;100.00;99667.98;107179;1270;24227;-65
2023/03/22 17:53:22;;;;;;;;;;;;;;;8.41;100.00;99668.60;107295;1275;26201;-64
2023/03/22 17:55:51;;;;;;;17.70;11.10;;;;;;;8.35;100.00;99677.67;107326;1273;25360;-65
2023/03/22 17:58:19;;;;;;;22.90;13.20;;;;;;;8.26;100.00;99679.73;107235;1269;25795;-65
2023/03/22 18:00:45;;;;;;;22.10;14.70;;;;;;;8.16;100.00;99680.23;107229;1272;22590;-65
2023/03/22 18:03:13;;;;;;;20.30;12.70;;;;;;;8.05;100.00;99679.38;107224;1275;25586;-65
2023/03/22 18:05:40;;;;;;;17.40;11.40;;;;;;;7.97;100.00;99678.54;107264;1269;26542;-65
2023/03/22 18:08:06;;;;;;;16.60;10.90;;;;;;;7.91;100.00;99675.22;107116;1276;26875;-65
2023/03/22 18:10:34;;;;;;;13.30;9.50;;;;;;;7.85;100.00;99675.54;107228;1274;25338;-65
2023/03/22 18:13:01;;;;;;;15.20;9.60;;;;;;;7.79;100.00;99677.92;107226;1273;25522;-64
2023/03/22 18:15:30;;;;;;;14.90;10.20;;;;;;;7.78;100.00;99679.48;107306;1275;22712;-67
2023/03/22 18:17:58;;;;;;;16.90;9.30;;;;;;;7.78;100.00;99681.27;107527;1269;22607;-66
2023/03/22 18:20:25;;;;;;;15.90;10.10;;;;;;;7.78;100.00;99687.17;107216;1270;25536;-67
2023/03/22 18:22:53;;;;;;;62.60;36.50;;;;;;;7.74;100.00;99691.71;107573;1269;25466;-67
2023/03/22 18:25:19;;;;;;;31.70;19.60;;;;;;;7.70;100.00;99697.26;107162;1269;24432;-68
2023/03/22 18:27:46;;;;;;;;;;;;;;;7.64;100.00;99701.42;107257;1269;24279;-67
2023/03/22 18:30:16;;;;;;;27.30;18.00;;;;;;;7.53;100.00;99701.52;107331;1269;25372;-67
2023/03/22 18:32:45;;;;;;;27.30;18.70;;;;;;;7.42;100.00;99706.30;107491;1269;22656;-67
2023/03/22 18:35:12;;;;;;;31.10;20.60;;;;;;;7.39;100.00;99709.62;107522;1269;22550;-67
2023/03/22 18:37:41;;;;;;;31.80;19.90;;;;;;;7.40;100.00;99708.70;107144;1271;25294;-68
2023/03/22 18:40:09;;;;;;;28.30;15.80;;;;;;;7.41;100.00;99709.96;107374;1253;22652;-67
2023/03/22 18:42:38;;;;;;;40.50;23.60;;;;;;;7.38;100.00;99709.40;107537;1273;22533;-68
2023/03/22 18:45:07;;;;;;;30.00;21.20;;;;;;;7.28;100.00;99710.42;107445;1269;25383;-67
2023/03/22 18:47:35;;;;;;;29.60;19.00;;;;;;;7.19;100.00;99710.38;107037;1275;25262;-68
2023/03/22 18:50:07;;;;;;;36.40;23.70;;;;;;;7.09;100.00;99705.44;107468;1274;25396;-68
2023/03/22 18:52:33;;;;;;;40.70;27.20;;;;;;;7.05;100.00;99707.49;107314;1273;22523;-67
2023/03/22 18:55:03;;;;;;;40.40;26.50;;;;;;;7.03;100.00;99705.57;107176;1269;25385;-68
2023/03/22 18:57:30;;;;;;;40.30;23.70;;;;;;;7.04;100.00;99702.93;107300;1270;24566;-68
2023/03/22 18:59:57;;;;;;;43.60;26.90;;;;;;;7.04;100.00;99708.55;107280;1269;23529;-68
2023/03/22 19:02:24;;;;;;;52.80;33.70;;;;;;;6.99;100.00;99710.64;107179;1269;22549;-67
2023/03/22 19:04:52;;;;;;;57.30;37.00;;;;;;;6.92;100.00;99710.55;107234;1269;25341;-68
2023/03/22 19:07:19;;;;;;;68.70;42.70;;;;;;;6.87;100.00;99711.34;107198;1275;23318;-68
2023/03/22 19:09:45;;;;;;;53.20;34.90;;;;;;;6.83;100.00;99709.55;107324;1273;26641;-68
2023/03/22 19:12:12;;;;;;;47.30;32.00;;;;;;;6.84;100.00;99715.68;107275;1275;22558;-67
2023/03/22 19:14:44;;;;;;;44.10;27.30;;;;;;;6.85;100.00;99712.88;107442;1269;25418;-68
2023/03/22 19:17:11;;;;;;;34.50;24.00;;;;;;;6.84;100.00;99711.46;107447;1270;24281;-69
2023/03/22 19:19:37;;;;;;;44.00;24.60;;;;;;;6.80;100.00;99714.91;110194;1269;22187;-69
2023/03/22 19:22:05;;;;;;;40.60;25.10;;;;;;;6.77;100.00;99714.60;110428;1271;22196;-69
2023/03/22 19:24:31;;;;;;;41.80;25.90;;;;;;;6.74;100.00;99712.98;110410;1269;22195;-68
2023/03/22 19:26:58;;;;;;;46.70;25.20;;;;;;;6.71;100.00;99713.47;110364;1269;22365;-69
2023/03/22 19:29:27;;;;;;;44.20;27.40;;;;;;;6.75;100.00;99708.45;110396;1275;22447;-69
2023/03/22 19:31:57;;;;;;;50.00;26.90;;;;;;;6.79;100.00;99711.60;110337;1274;23089;-67
2023/03/22 19:34:24;;;;;;;44.40;28.10;;;;;;;6.83;100.00;99711.50;110300;1269;22222;-67
2023/03/22 19:36:53;;;;;;;61.80;43.50;;;;;;;6.82;100.00;99715.00;109403;1272;22530;-67
2023/03/22 19:39:21;;;;;;;65.90;47.20;;;;;;;6.79;100.00;99713.61;107363;1269;22529;-67
2023/03/22 19:41:48;;;;;;;68.10;48.40;;;;;;;6.75;100.00;99712.35;107334;1269;22680;-66
2023/03/22 19:44:17;;;;;;;67.50;50.70;;;;;;;6.71;100.00;99706.00;107442;1275;26146;-68
2023/03/22 19:46:47;;;;;;;89.60;62.10;;;;;;;6.72;100.00;99708.73;107609;1269;26515;-66
2023/03/22 19:49:17;;;;;;;102.00;69.40;;;;;;;6.73;100.00;99705.88;107306;1269;25275;-66
2023/03/22 19:51:44;;;;;;;67.00;46.40;;;;;;;6.73;100.00;99708.38;107418;1270;25278;-67
2023/03/22 19:54:12;;;;;;;71.70;48.00;;;;;;;6.68;100.00;99708.57;107207;1275;22545;-67
2023/03/22 19:56:39;;;;;;;75.00;48.70;;;;;;;6.62;100.00;99705.00;107375;1273;23003;-68
2023/03/22 19:59:07;;;;;;;82.90;49.10;;;;;;;6.55;100.00;99705.33;107355;1269;26692;-67
2023/03/22 20:01:34;;;;;;;172.20;93.80;;;;;;;6.50;100.00;99704.83;107319;1275;23045;-66
2023/03/22 20:04:00;;;;;;;163.50;89.60;;;;;;;6.51;100.00;99706.73;107394;1269;25307;-67
2023/03/22 20:06:31;;;;;;;145.40;76.70;;;;;;;6.53;100.00;99706.97;107331;1270;23426;-65
2023/03/22 20:09:01;;;;;;;105.60;59.10;;;;;;;6.54;100.00;99704.39;107179;1275;25335;-67
2023/03/22 20:11:27;;;;;;;91.60;53.00;;;;;;;6.51;100.00;99704.77;107525;1268;22638;-67
2023/03/22 20:13:59;;;;;;;77.10;46.20;;;;;;;6.45;100.00;99705.00;107468;1271;25370;-67
2023/03/22 20:16:29;;;;;;;54.90;33.20;;;;;;;6.39;100.00;99704.27;107278;1270;22535;-66
2023/03/22 20:18:55;;;;;;;49.60;29.90;;;;;;;6.35;100.00;99703.65;107400;1270;22552;-67
2023/03/22 20:21:22;;;;;;;;;;;;;;;6.37;100.00;99703.03;107307;1275;25389;-66
2023/03/22 20:23:49;;;;;;;50.30;31.20;;;;;;;6.37;100.00;99701.41;107493;1269;25496;-66
2023/03/22 20:26:17;;;;;;;47.70;30.50;;;;;;;6.34;100.00;99700.17;107351;1269;23914;-66
2023/03/22 20:28:43;;;;;;;;;;;;;;;6.30;100.00;99696.10;107306;1269;25499;-66
2023/03/22 20:31:11;;;;;;;39.90;26.30;;;;;;;6.23;100.00;99695.23;107337;1269;22695;-67
2023/03/22 20:33:38;;;;;;;35.20;24.40;;;;;;;6.15;100.00;99697.52;107242;1268;24596;-65
2023/03/22 20:36:06;;;;;;;37.40;24.60;;;;;;;6.12;100.00;99701.67;107834;1269;22746;-67
2023/03/22 20:38:40;;;;;;;37.90;24.30;;;;;;;6.14;100.00;99699.77;107200;1275;23245;-67
2023/03/22 20:41:07;;;;;;;33.60;22.40;;;;;;;6.15;100.00;99702.73;107401;1269;25192;-67
2023/03/22 20:43:33;;;;;;;31.30;21.20;;;;;;;6.15;100.00;99699.52;107327;1254;25482;-67
2023/03/22 20:46:00;;;;;;;33.30;22.00;;;;;;;6.10;100.00;99702.67;107125;1272;22530;-67
2023/03/22 20:48:28;;;;;;;35.00;23.80;;;;;;;6.04;100.00;99700.29;107050;1275;25501;-66